Terminal Aerodrome Forecast
Issued by NWS

Home | Current Version | Previous Version | Text Only | Print | Product List | Glossary On
Versions: 1 2 3 4 5 6 7 8 9 10 11 12 13 14 15 16 17 18 19 20 21 22 23
000
FTUS41 KOKX 301100
TAFHPN
TAF
KHPN 301139Z 3012/3112 VRB03KT P6SM SCT040 SCT250
     FM301300 16007KT P6SM SCT050 SCT250
     FM302300 18005KT P6SM SCT040 BKN250
     FM311000 VRB03KT 5SM BR BKN020
      AMD NOT SKED=

USA.gov is the U.S. government's official web portal to all federal, state and local government web resources and services.